createdAt,value
2019-04-16T00:01:15.974Z,82.60
2019-04-16T00:03:46.929Z,81.70
2019-04-16T00:06:22.903Z,82.40
2019-04-16T00:09:00.085Z,83.60
2019-04-16T00:11:38.350Z,84.20
2019-04-16T00:14:26.521Z,83.90
2019-04-16T00:16:55.924Z,85.50
2019-04-16T00:19:25.252Z,85.20
2019-04-16T00:22:16.566Z,85.40
2019-04-16T00:24:48.895Z,86.10
2019-04-16T00:27:18.345Z,86.20
2019-04-16T00:29:47.719Z,86.70
2019-04-16T00:32:26.076Z,87.80
2019-04-16T00:34:55.055Z,88.10
2019-04-16T00:37:24.434Z,90.00
2019-04-16T00:39:56.088Z,89.60
2019-04-16T00:42:25.054Z,90.60
2019-04-16T00:44:54.461Z,90.90
2019-04-16T00:47:23.825Z,91.20
2019-04-16T00:49:57.574Z,92.70
2019-04-16T00:52:24.392Z,91.30
2019-04-16T00:54:53.744Z,91.80
2019-04-16T00:57:23.179Z,92.50
2019-04-16T00:59:56.310Z,92.10
2019-04-16T01:02:23.646Z,92.20
2019-04-16T01:04:53.032Z,92.10
2019-04-16T01:07:22.365Z,93.00
2019-04-16T01:09:51.777Z,92.80
2019-04-16T01:12:21.263Z,92.70
2019-04-16T01:14:50.632Z,92.80
2019-04-16T01:17:19.966Z,93.00
2019-04-16T01:19:49.278Z,93.20
2019-04-16T01:22:18.792Z,93.60
2019-04-16T01:24:51.645Z,93.70
2019-04-16T01:27:20.929Z,93.70
2019-04-16T01:29:50.274Z,93.10
2019-04-16T01:32:33.164Z,92.90
2019-04-16T01:35:33.564Z,92.80
2019-04-16T01:38:30.224Z,92.80
2019-04-16T01:41:01.910Z,97.10
2019-04-16T01:43:31.230Z,98.80
2019-04-16T01:46:02.139Z,99.20
2019-04-16T01:48:31.799Z,98.30
2019-04-16T01:51:01.261Z,99.50
2019-04-16T01:53:30.688Z,99.90
2019-04-16T01:56:00.153Z,99.90
2019-04-16T01:58:33.656Z,99.90
2019-04-16T02:01:00.753Z,99.90
2019-04-16T02:03:30.100Z,99.90
2019-04-16T02:05:59.412Z,99.90
2019-04-16T02:08:31.100Z,99.90
2019-04-16T02:10:59.769Z,99.90
2019-04-16T02:13:29.125Z,99.90
2019-04-16T02:15:58.619Z,99.90
2019-04-16T02:18:29.674Z,99.90
2019-04-16T02:20:59.099Z,99.90
2019-04-16T02:23:28.477Z,99.90
2019-04-16T02:25:57.808Z,99.90
2019-04-16T02:28:28.319Z,99.90
2019-04-16T02:30:58.360Z,99.90
2019-04-16T02:33:27.684Z,99.90
2019-04-16T02:35:57.034Z,99.90
2019-04-16T02:38:26.446Z,99.90
2019-04-16T02:40:55.887Z,99.90
2019-04-16T02:43:25.267Z,99.90
2019-04-16T02:45:58.033Z,99.90
2019-04-16T02:48:25.710Z,99.90
2019-04-16T02:51:05.270Z,99.90
2019-04-16T02:53:40.416Z,99.90
2019-04-16T02:56:41.628Z,99.90
2019-04-16T02:59:23.477Z,99.90
2019-04-16T03:02:22.656Z,99.90
2019-04-16T03:04:58.180Z,99.90
2019-04-16T03:07:24.913Z,99.90
2019-04-16T03:10:01.055Z,99.90
2019-04-16T03:12:25.284Z,99.90
2019-04-16T03:14:54.738Z,99.90
2019-04-16T03:17:42.855Z,99.90
2019-04-16T03:20:13.515Z,99.90
2019-04-16T03:22:42.877Z,99.90
2019-04-16T03:25:14.030Z,99.90
2019-04-16T03:27:43.285Z,99.90
2019-04-16T03:30:14.235Z,99.90
2019-04-16T03:32:50.768Z,99.90
2019-04-16T03:35:25.225Z,99.90
2019-04-16T03:37:51.188Z,99.90
2019-04-16T03:40:24.669Z,99.90
2019-04-16T03:42:51.819Z,99.90
2019-04-16T03:45:21.253Z,99.90
2019-04-16T03:47:51.375Z,99.90
2019-04-16T03:50:21.624Z,99.90
2019-04-16T03:52:50.975Z,99.90
2019-04-16T03:55:24.936Z,99.90
2019-04-16T03:57:51.476Z,99.90
2019-04-16T04:00:21.005Z,99.90
2019-04-16T04:02:53.900Z,99.90
2019-04-16T04:05:21.353Z,99.90
2019-04-16T04:07:50.924Z,99.90
2019-04-16T04:10:30.323Z,99.90
2019-04-16T04:12:51.406Z,99.90
2019-04-16T04:15:25.989Z,99.90
2019-04-16T04:17:51.848Z,99.90
2019-04-16T04:20:21.255Z,99.90
2019-04-16T04:22:50.566Z,99.90
2019-04-16T04:25:19.896Z,99.90
2019-04-16T04:27:49.212Z,99.90
2019-04-16T04:30:20.441Z,99.90
2019-04-16T04:32:49.841Z,99.90
2019-04-16T04:35:21.794Z,99.90
2019-04-16T04:37:50.217Z,99.90
2019-04-16T04:40:19.561Z,99.90
2019-04-16T04:42:49.034Z,99.90
2019-04-16T04:45:18.437Z,99.90
2019-04-16T04:47:50.988Z,99.90
2019-04-16T04:50:18.971Z,99.90
2019-04-16T04:52:48.334Z,99.90
2019-04-16T04:55:17.690Z,99.90
2019-04-16T04:57:47.098Z,99.90
2019-04-16T05:00:16.551Z,99.90
2019-04-16T05:02:45.909Z,99.90
2019-04-16T05:05:40.168Z,99.90
2019-04-16T05:08:09.557Z,99.90
2019-04-16T05:10:42.740Z,99.90
2019-04-16T05:13:10.151Z,99.90
2019-04-16T05:15:39.567Z,99.90
2019-04-16T05:18:09.901Z,99.90
2019-04-16T05:20:40.071Z,99.90
2019-04-16T05:23:09.476Z,99.90
2019-04-16T05:25:39.349Z,99.90
2019-04-16T05:28:11.609Z,99.90
2019-04-16T05:30:39.952Z,99.90
2019-04-16T05:33:09.400Z,99.90
2019-04-16T05:35:41.473Z,99.90
2019-04-16T05:38:09.979Z,99.90
2019-04-16T05:40:39.364Z,99.90
2019-04-16T05:43:08.734Z,99.90
2019-04-16T05:45:38.222Z,99.90
2019-04-16T05:48:07.526Z,99.90
2019-04-16T05:50:36.962Z,99.90
2019-04-16T05:53:08.378Z,99.90
2019-04-16T05:55:57.486Z,99.90
2019-04-16T05:58:27.762Z,99.90
2019-04-16T06:01:17.015Z,99.90
2019-04-16T06:03:46.406Z,99.90
2019-04-16T06:06:15.738Z,99.90
2019-04-16T06:08:45.158Z,99.90
2019-04-16T06:11:27.266Z,99.90
2019-04-16T06:14:09.080Z,99.90
2019-04-16T06:16:57.654Z,99.90
2019-04-16T06:19:43.884Z,99.90
2019-04-16T06:22:17.539Z,99.90
2019-04-16T06:25:26.707Z,99.90
2019-04-16T06:28:16.666Z,99.90
2019-04-16T06:31:16.780Z,99.90
2019-04-16T06:34:04.200Z,99.90
2019-04-16T06:37:02.058Z,99.90
2019-04-16T06:39:44.605Z,99.90
2019-04-16T06:42:38.874Z,99.90
2019-04-16T06:45:19.087Z,99.90
2019-04-16T06:47:52.866Z,99.90
2019-04-16T06:50:32.106Z,99.90
2019-04-16T06:53:07.706Z,99.90
2019-04-16T06:55:45.369Z,99.90
2019-04-16T06:58:49.917Z,99.90
2019-04-16T07:01:28.147Z,99.90
2019-04-16T07:04:06.609Z,99.90
2019-04-16T07:06:52.322Z,99.90
2019-04-16T07:09:41.331Z,99.90
2019-04-16T07:12:08.697Z,99.90
2019-04-16T07:14:38.137Z,99.90
2019-04-16T07:17:07.742Z,99.30
2019-04-16T07:19:39.420Z,98.30
2019-04-16T07:22:08.292Z,97.40
2019-04-16T07:24:38.529Z,96.00
2019-04-16T07:27:07.995Z,96.40
2019-04-16T07:29:47.704Z,95.50
2019-04-16T07:32:39.356Z,94.30
2019-04-16T07:35:34.730Z,96.00
2019-04-16T07:38:26.605Z,95.80
2019-04-16T07:41:30.388Z,93.60
2019-04-16T07:44:08.186Z,93.40
2019-04-16T07:46:59.322Z,90.50
2019-04-16T07:49:37.341Z,79.20
2019-04-16T07:52:31.795Z,76.40
2019-04-16T07:55:23.624Z,71.40
2019-04-16T07:57:53.986Z,71.00
2019-04-16T08:00:25.221Z,70.60
2019-04-16T08:02:54.767Z,69.20
2019-04-16T08:05:28.069Z,58.20
2019-04-16T08:07:57.871Z,55.00
2019-04-16T08:10:27.377Z,54.80
2019-04-16T08:13:02.740Z,53.90
2019-04-16T08:15:32.175Z,53.20
2019-04-16T08:18:01.610Z,52.40
2019-04-16T08:20:31.005Z,52.40
2019-04-16T08:23:02.649Z,52.90
2019-04-16T08:25:34.241Z,53.40
2019-04-16T08:28:06.494Z,55.20
2019-04-16T08:30:39.011Z,54.40
2019-04-16T08:33:05.499Z,54.80
2019-04-16T08:35:34.890Z,54.60
2019-04-16T08:38:04.327Z,52.40
2019-04-16T08:40:33.784Z,51.80
2019-04-16T08:43:03.297Z,50.50
2019-04-16T08:45:32.702Z,50.20
2019-04-16T08:48:02.195Z,54.00
2019-04-16T08:50:31.692Z,53.80
2019-04-16T08:53:01.131Z,54.80
2019-04-16T08:55:30.697Z,55.90
2019-04-16T08:58:00.318Z,54.90
2019-04-16T09:00:29.876Z,53.50
2019-04-16T09:02:59.461Z,51.50
2019-04-16T09:05:28.916Z,51.40
2019-04-16T09:08:12.277Z,49.00
2019-04-16T09:10:36.099Z,50.50
2019-04-16T09:13:07.494Z,50.30
2019-04-16T09:15:37.566Z,49.70
2019-04-16T09:18:22.899Z,49.00
2019-04-16T09:20:52.237Z,52.60
2019-04-16T09:23:22.780Z,55.50
2019-04-16T09:26:23.682Z,53.30
2019-04-16T09:29:10.517Z,50.40
2019-04-16T09:32:05.343Z,50.20
2019-04-16T09:35:08.931Z,48.90
2019-04-16T09:37:48.801Z,50.20
2019-04-16T09:40:30.693Z,51.60
2019-04-16T09:43:15.820Z,52.60
2019-04-16T09:45:37.130Z,51.20
2019-04-16T09:48:05.272Z,50.70
2019-04-16T09:50:34.936Z,52.40
2019-04-16T09:53:05.748Z,50.90
2019-04-16T09:55:35.045Z,53.70
2019-04-16T09:58:11.305Z,54.80
2019-04-16T10:00:42.332Z,54.00
2019-04-16T10:03:33.327Z,51.20
2019-04-16T10:06:05.388Z,48.60
2019-04-16T10:08:33.890Z,47.60
2019-04-16T10:11:05.998Z,47.10
2019-04-16T10:13:36.223Z,47.60
2019-04-16T10:16:05.824Z,47.40
2019-04-16T10:18:36.015Z,48.40
2019-04-16T10:21:05.673Z,50.40
2019-04-16T10:23:59.459Z,49.90
2019-04-16T10:26:28.889Z,49.30
2019-04-16T10:28:59.944Z,50.00
2019-04-16T10:31:29.487Z,48.90
2019-04-16T10:33:58.912Z,48.90
2019-04-16T10:36:28.390Z,47.80
2019-04-16T10:39:12.017Z,49.00
2019-04-16T10:41:47.414Z,49.70
2019-04-16T10:44:29.021Z,48.20
2019-04-16T10:47:13.104Z,47.40
2019-04-16T10:50:00.078Z,49.30
2019-04-16T10:52:47.300Z,52.30
2019-04-16T10:55:38.819Z,52.10
2019-04-16T10:58:42.523Z,51.00
2019-04-16T11:01:24.225Z,49.80
2019-04-16T11:04:01.276Z,49.00
2019-04-16T11:06:37.394Z,50.10
2019-04-16T11:09:08.280Z,51.80
2019-04-16T11:11:37.745Z,48.90
2019-04-16T11:14:07.794Z,49.40
2019-04-16T11:16:38.542Z,50.90
2019-04-16T11:19:08.052Z,49.50
2019-04-16T11:21:37.567Z,50.30
2019-04-16T11:24:07.104Z,51.00
2019-04-16T11:26:36.743Z,51.50
2019-04-16T11:29:06.385Z,50.40
2019-04-16T11:31:35.821Z,54.20
2019-04-16T11:34:07.737Z,49.40
2019-04-16T11:36:37.961Z,51.00
2019-04-16T11:39:10.473Z,51.70
2019-04-16T11:41:40.039Z,49.70
2019-04-16T11:44:15.618Z,53.70
2019-04-16T11:46:40.503Z,52.10
2019-04-16T11:49:09.928Z,52.70
2019-04-16T11:51:39.486Z,54.20
2019-04-16T11:54:11.444Z,51.70
2019-04-16T11:56:41.747Z,49.50
2019-04-16T11:59:11.174Z,49.60
2019-04-16T12:02:03.944Z,49.20
2019-04-16T12:04:47.031Z,51.40
2019-04-16T12:07:47.426Z,52.50
2019-04-16T12:10:34.983Z,51.00
2019-04-16T12:13:35.461Z,47.90
2019-04-16T12:16:27.164Z,52.00
2019-04-16T12:19:21.662Z,49.50
2019-04-16T12:22:25.127Z,51.30
2019-04-16T12:25:23.062Z,50.90
2019-04-16T12:28:12.510Z,52.50
2019-04-16T12:31:05.902Z,51.00
2019-04-16T12:33:56.839Z,54.30
2019-04-16T12:37:00.611Z,53.30
2019-04-16T12:39:37.765Z,56.10
2019-04-16T12:42:12.131Z,56.30
2019-04-16T12:44:57.182Z,54.60
2019-04-16T12:47:47.115Z,54.10
2019-04-16T12:50:32.550Z,55.30
2019-04-16T12:53:18.997Z,53.50
2019-04-16T12:56:08.428Z,55.00
2019-04-16T12:59:02.166Z,54.00
2019-04-16T13:01:50.515Z,56.20
2019-04-16T13:04:48.766Z,54.00
2019-04-16T13:07:23.385Z,55.30
2019-04-16T13:10:26.883Z,54.20
2019-04-16T13:13:24.290Z,53.40
2019-04-16T13:16:05.258Z,53.80
2019-04-16T13:18:51.926Z,52.80
2019-04-16T13:21:24.940Z,54.10
2019-04-16T13:24:13.564Z,52.60
2019-04-16T13:26:49.859Z,53.20
2019-04-16T13:29:22.016Z,53.60
2019-04-16T13:31:51.507Z,55.60
2019-04-16T13:34:23.321Z,53.30
2019-04-16T13:36:52.674Z,54.70
2019-04-16T13:39:44.512Z,54.50
2019-04-16T13:42:13.831Z,54.60
2019-04-16T13:44:46.459Z,54.80
2019-04-16T13:47:15.803Z,53.40
2019-04-16T13:50:04.766Z,53.20
2019-04-16T13:52:34.888Z,53.60
2019-04-16T13:55:27.817Z,53.70
2019-04-16T13:58:04.271Z,54.60
2019-04-16T14:00:46.623Z,52.00
2019-04-16T14:03:20.775Z,51.60
2019-04-16T14:05:49.082Z,52.30
2019-04-16T14:08:18.499Z,51.70
2019-04-16T14:10:49.019Z,51.60
2019-04-16T14:13:18.458Z,52.30
2019-04-16T14:15:47.887Z,53.10
2019-04-16T14:18:17.288Z,52.10
2019-04-16T14:20:46.674Z,52.00
2019-04-16T14:23:16.068Z,51.80
2019-04-16T14:25:45.509Z,50.80
2019-04-16T14:28:17.911Z,53.60
2019-04-16T14:30:49.247Z,51.80
2019-04-16T14:33:35.297Z,52.50
2019-04-16T14:36:05.752Z,53.90
2019-04-16T14:38:40.862Z,52.90
2019-04-16T14:41:11.914Z,56.50
2019-04-16T14:43:44.025Z,54.90
2019-04-16T14:46:13.553Z,56.50
2019-04-16T14:48:46.422Z,54.10
2019-04-16T14:51:14.549Z,55.70
2019-04-16T14:54:02.870Z,54.90
2019-04-16T14:56:40.888Z,53.90
2019-04-16T14:59:35.179Z,55.50
2019-04-16T15:02:22.223Z,55.70
2019-04-16T15:05:15.770Z,55.30
2019-04-16T15:07:56.691Z,58.30
2019-04-16T15:10:50.970Z,58.70
2019-04-16T15:13:33.368Z,57.90
2019-04-16T15:16:25.133Z,57.60
2019-04-16T15:19:12.366Z,56.80
2019-04-16T15:22:16.253Z,57.80
2019-04-16T15:24:54.032Z,57.80
2019-04-16T15:27:42.045Z,57.70
2019-04-16T15:30:33.704Z,60.00
2019-04-16T15:33:20.897Z,55.90
2019-04-16T15:35:57.529Z,55.90
2019-04-16T15:38:54.727Z,57.30
2019-04-16T15:41:45.896Z,57.70
2019-04-16T15:44:25.071Z,59.20
2019-04-16T15:47:05.219Z,59.30
2019-04-16T15:49:44.846Z,60.60
2019-04-16T15:52:27.405Z,58.80
2019-04-16T15:55:15.817Z,61.40
2019-04-16T15:57:51.445Z,56.90
2019-04-16T16:00:43.805Z,57.50
2019-04-16T16:03:41.279Z,59.30
2019-04-16T16:06:16.957Z,59.70
2019-04-16T16:08:50.529Z,57.20
2019-04-16T16:11:23.397Z,59.80
2019-04-16T16:13:52.778Z,60.30
2019-04-16T16:16:22.240Z,61.10
2019-04-16T16:18:51.692Z,64.00
2019-04-16T16:21:21.052Z,65.70
2019-04-16T16:23:50.613Z,65.30
2019-04-16T16:26:20.074Z,68.00
2019-04-16T16:28:49.554Z,68.40
2019-04-16T16:31:19.021Z,71.90
2019-04-16T16:33:48.543Z,70.10
2019-04-16T16:36:18.003Z,70.30
2019-04-16T16:38:48.517Z,67.50
2019-04-16T16:41:18.778Z,66.50
2019-04-16T16:43:48.289Z,66.10
2019-04-16T16:46:39.505Z,65.10
2019-04-16T16:49:08.958Z,66.80
2019-04-16T16:51:41.049Z,65.60
2019-04-16T16:54:16.671Z,72.10
2019-04-16T16:57:09.637Z,69.30
2019-04-16T16:59:46.601Z,69.60
2019-04-16T17:02:35.562Z,68.80
2019-04-16T17:05:06.380Z,63.70
2019-04-16T17:07:35.812Z,66.20
2019-04-16T17:10:05.862Z,66.60
2019-04-16T17:12:35.359Z,67.80
2019-04-16T17:15:08.719Z,68.70
2019-04-16T17:17:36.386Z,67.30
2019-04-16T17:20:06.122Z,64.20
2019-04-16T17:22:35.570Z,64.30
2019-04-16T17:25:10.747Z,65.60
2019-04-16T17:27:50.629Z,67.40
2019-04-16T17:30:09.100Z,67.90
2019-04-16T17:32:38.663Z,67.70
2019-04-16T17:35:14.369Z,65.20
2019-04-16T17:37:42.685Z,64.80
2019-04-16T17:40:24.797Z,66.90
2019-04-16T17:42:57.670Z,68.80
2019-04-16T17:45:41.029Z,75.60
2019-04-16T17:48:32.428Z,74.10
2019-04-16T17:51:16.476Z,75.10
2019-04-16T17:54:00.063Z,75.90
2019-04-16T17:57:00.435Z,76.10
2019-04-16T18:00:00.524Z,76.70
2019-04-16T18:02:55.567Z,74.80
2019-04-16T18:05:34.762Z,71.50
2019-04-16T18:08:35.554Z,72.40
2019-04-16T18:11:17.872Z,71.30
2019-04-16T18:14:18.616Z,73.40
2019-04-16T18:16:54.211Z,72.20
2019-04-16T18:19:57.659Z,72.30
2019-04-16T18:22:32.611Z,73.20
2019-04-16T18:25:24.096Z,73.20
2019-04-16T18:28:04.634Z,73.30
2019-04-16T18:30:53.156Z,74.40
2019-04-16T18:33:48.223Z,74.70
2019-04-16T18:36:26.365Z,75.30
2019-04-16T18:39:37.144Z,76.20
2019-04-16T18:42:11.733Z,76.50
2019-04-16T18:45:01.610Z,76.10
2019-04-16T18:47:44.582Z,76.20
2019-04-16T18:50:21.961Z,76.70
2019-04-16T18:52:49.048Z,77.30
2019-04-16T18:55:18.623Z,78.50
2019-04-16T18:57:48.029Z,77.90
2019-04-16T19:00:33.208Z,78.40
2019-04-16T19:03:02.644Z,78.80
2019-04-16T19:05:32.031Z,79.60
2019-04-16T19:08:01.580Z,79.20
2019-04-16T19:10:31.265Z,79.50
2019-04-16T19:13:00.803Z,79.40
2019-04-16T19:15:30.216Z,79.50
2019-04-16T19:17:59.767Z,80.50
2019-04-16T19:20:29.228Z,81.30
2019-04-16T19:22:58.862Z,81.10
2019-04-16T19:25:28.329Z,82.70
2019-04-16T19:27:58.000Z,82.40
2019-04-16T19:30:27.566Z,83.40
2019-04-16T19:33:00.244Z,83.20
2019-04-16T19:35:28.729Z,84.40
2019-04-16T19:37:58.347Z,85.50
2019-04-16T19:40:27.930Z,85.80
2019-04-16T19:43:00.450Z,88.60
2019-04-16T19:45:28.880Z,88.90
2019-04-16T19:48:00.831Z,90.40
2019-04-16T19:50:35.696Z,90.20
2019-04-16T19:53:01.224Z,92.50
2019-04-16T19:55:33.536Z,91.00
2019-04-16T19:58:03.052Z,91.20
2019-04-16T20:00:32.684Z,92.80
2019-04-16T20:03:02.325Z,93.50
2019-04-16T20:05:31.951Z,92.90
2019-04-16T20:08:01.444Z,92.80
2019-04-16T20:10:31.101Z,91.70
2019-04-16T20:13:01.008Z,91.90
2019-04-16T20:15:30.660Z,92.10
2019-04-16T20:18:00.078Z,91.90
2019-04-16T20:20:29.626Z,92.10
2019-04-16T20:22:59.336Z,91.80
2019-04-16T20:25:28.999Z,92.80
2019-04-16T20:27:58.565Z,94.80
2019-04-16T20:30:28.262Z,99.00
2019-04-16T20:32:57.793Z,99.90
2019-04-16T20:35:27.258Z,99.90
2019-04-16T20:37:56.762Z,99.90
2019-04-16T20:40:26.217Z,99.90
2019-04-16T20:42:55.605Z,99.90
2019-04-16T20:45:25.104Z,99.90
2019-04-16T20:47:54.818Z,99.90
2019-04-16T20:50:24.972Z,99.90
2019-04-16T20:52:54.620Z,99.90
2019-04-16T20:55:24.093Z,99.90
2019-04-16T20:57:55.294Z,99.90
2019-04-16T21:00:28.508Z,99.90
2019-04-16T21:02:58.087Z,99.90
2019-04-16T21:05:27.499Z,99.90
2019-04-16T21:07:56.949Z,99.90
2019-04-16T21:10:26.461Z,99.90
2019-04-16T21:12:56.086Z,99.90
2019-04-16T21:15:27.488Z,99.90
2019-04-16T21:17:57.763Z,99.90
2019-04-16T21:20:27.440Z,99.90
2019-04-16T21:23:01.270Z,99.90
2019-04-16T21:25:27.983Z,99.90
2019-04-16T21:28:08.878Z,99.90
2019-04-16T21:30:42.854Z,99.90
2019-04-16T21:33:22.343Z,99.90
2019-04-16T21:35:54.024Z,99.90
2019-04-16T21:38:42.157Z,99.90
2019-04-16T21:41:12.832Z,99.90
2019-04-16T21:43:42.196Z,99.90
2019-04-16T21:46:11.532Z,99.90
2019-04-16T21:48:40.887Z,99.90
2019-04-16T21:51:10.292Z,99.90
2019-04-16T21:53:39.746Z,99.90
2019-04-16T21:56:09.155Z,99.90
2019-04-16T21:58:38.597Z,99.90
2019-04-16T22:01:17.901Z,99.90
2019-04-16T22:03:51.748Z,99.90
2019-04-16T22:06:21.172Z,99.90
2019-04-16T22:08:50.687Z,99.90
2019-04-16T22:11:20.157Z,99.90
2019-04-16T22:13:50.654Z,99.90
2019-04-16T22:16:20.597Z,99.90
2019-04-16T22:18:49.909Z,99.90
2019-04-16T22:21:19.350Z,99.90
2019-04-16T22:23:50.401Z,99.90
2019-04-16T22:26:19.952Z,99.90
2019-04-16T22:28:49.366Z,99.90
2019-04-16T22:31:20.874Z,99.90
2019-04-16T22:33:52.189Z,99.90
2019-04-16T22:36:21.624Z,99.90
2019-04-16T22:38:56.165Z,99.90
2019-04-16T22:41:44.521Z,99.90
2019-04-16T22:44:29.388Z,99.90
2019-04-16T22:47:06.902Z,99.90
2019-04-16T22:49:36.336Z,99.90
2019-04-16T22:52:05.843Z,99.90
2019-04-16T22:54:35.703Z,99.90
2019-04-16T22:57:07.078Z,99.90
2019-04-16T22:59:40.173Z,99.90
2019-04-16T23:02:16.832Z,99.90
2019-04-16T23:04:46.473Z,99.90
2019-04-16T23:07:15.758Z,99.90
2019-04-16T23:09:45.809Z,99.90
2019-04-16T23:12:16.105Z,99.90
2019-04-16T23:14:45.774Z,99.90
2019-04-16T23:17:15.610Z,99.90
2019-04-16T23:19:44.998Z,99.90
2019-04-16T23:22:15.378Z,99.90
2019-04-16T23:24:44.933Z,99.90
2019-04-16T23:27:14.339Z,99.90
2019-04-16T23:29:47.309Z,99.90
2019-04-16T23:32:19.909Z,99.90
2019-04-16T23:34:49.264Z,99.90
2019-04-16T23:37:22.949Z,99.90
2019-04-16T23:39:49.651Z,99.90
2019-04-16T23:42:19.829Z,99.90
2019-04-16T23:45:08.365Z,99.90
2019-04-16T23:47:56.229Z,99.90
2019-04-16T23:50:44.397Z,99.90
2019-04-16T23:53:16.439Z,99.90
2019-04-16T23:56:05.107Z,99.90
2019-04-16T23:59:01.346Z,99.90
